Time;durP1;ratioP1;P1;durP2;ratioP2;P2;SDS_P1;SDS_P2;PMS_P1;PMS_P2;Temp;Humidity;BMP_temperature;BMP_pressure;BME280_temperature;BME280_humidity;BME280_pressure;Samples;Min_cycle;Max_cycle;Signal;HPM_P1;HPM_P2
2021/07/31 00:00:04;;;;;;;5.13;4.63;;;18.90;45.10;;;;;;5096244;28;20268;-72
2021/07/31 00:02:30;;;;;;;5.03;4.30;;;18.80;44.40;;;;;;5095858;28;20238;-72
2021/07/31 00:04:55;;;;;;;5.90;4.77;;;18.80;44.10;;;;;;5096495;28;20431;-72
2021/07/31 00:07:21;;;;;;;5.57;4.77;;;18.70;43.90;;;;;;5096236;28;20569;-72
2021/07/31 00:09:46;;;;;;;7.17;4.83;;;18.70;44.70;;;;;;5096040;28;20250;-72
2021/07/31 00:12:12;;;;;;;5.97;4.87;;;18.70;44.40;;;;;;5095903;28;20169;-72
2021/07/31 00:14:37;;;;;;;6.57;5.17;;;18.70;43.90;;;;;;5096444;28;20170;-72
2021/07/31 00:17:06;;;;;;;6.57;4.80;;;18.70;43.90;;;;;;5097628;28;20200;-71
2021/07/31 00:19:32;;;;;;;4.30;4.00;;;18.70;43.90;;;;;;5096469;28;20274;-73
2021/07/31 00:21:58;;;;;;;4.87;4.13;;;18.80;43.30;;;;;;5095686;28;20423;-73
2021/07/31 00:24:23;;;;;;;5.93;5.00;;;18.70;43.00;;;;;;5095775;28;20456;-72
2021/07/31 00:26:49;;;;;;;5.20;4.00;;;18.80;42.90;;;;;;5096055;28;20415;-72
2021/07/31 00:29:15;;;;;;;7.00;4.97;;;18.80;42.40;;;;;;5095428;28;20193;-72
2021/07/31 00:31:40;;;;;;;5.33;4.83;;;18.90;41.50;;;;;;5095978;28;20204;-72
2021/07/31 00:34:06;;;;;;;5.33;4.83;;;18.90;40.90;;;;;;5096822;28;20185;-72
2021/07/31 00:36:31;;;;;;;8.63;4.80;;;19.00;40.70;;;;;;5095963;28;20181;-72
2021/07/31 00:38:57;;;;;;;7.77;4.50;;;19.00;40.10;;;;;;5095310;28;20562;-72
2021/07/31 00:41:22;;;;;;;4.83;4.37;;;19.10;39.60;;;;;;5095781;28;20231;-72
2021/07/31 00:43:48;;;;;;;6.70;6.00;;;19.20;39.10;;;;;;5095129;28;20187;-72
2021/07/31 00:46:14;;;;;;;5.80;4.50;;;19.20;39.10;;;;;;5095608;28;20547;-71
2021/07/31 00:48:40;;;;;;;6.50;5.00;;;19.30;38.30;;;;;;5095562;28;20177;-71
2021/07/31 00:51:06;;;;;;;7.87;5.00;;;19.30;38.20;;;;;;5094544;28;20463;-72
2021/07/31 00:53:33;;;;;;;5.03;4.53;;;19.40;38.50;;;;;;5093698;28;20856;-71
2021/07/31 00:55:59;;;;;;;3.83;3.53;;;19.40;37.80;;;;;;5096084;28;20169;-72
2021/07/31 00:58:26;;;;;;;5.47;4.33;;;19.30;37.00;;;;;;5095793;28;20480;-73
2021/07/31 01:00:52;;;;;;;7.43;4.67;;;19.30;37.00;;;;;;5095218;28;20431;-72
2021/07/31 01:03:18;;;;;;;5.17;4.67;;;19.20;37.00;;;;;;5094483;28;20450;-70
2021/07/31 01:05:44;;;;;;;4.83;4.03;;;19.20;37.30;;;;;;5094708;28;20185;-72
2021/07/31 01:08:10;;;;;;;4.47;4.03;;;19.20;37.50;;;;;;5095278;28;20351;-72
2021/07/31 01:10:35;;;;;;;4.80;4.30;;;19.10;38.10;;;;;;5093116;28;20998;-72
2021/07/31 01:13:03;;;;;;;5.17;4.30;;;19.10;38.20;;;;;;5093744;28;20173;-71
2021/07/31 01:15:29;;;;;;;7.77;4.07;;;19.00;38.10;;;;;;5095334;28;20177;-71
2021/07/31 01:17:54;;;;;;;3.77;3.47;;;18.90;38.80;;;;;;5094673;28;20418;-71
2021/07/31 01:20:20;;;;;;;4.63;4.23;;;18.90;38.90;;;;;;5093881;28;20497;-71
2021/07/31 01:22:46;;;;;;;5.07;4.27;;;18.90;38.90;;;;;;5094453;28;20630;-71
2021/07/31 01:25:11;;;;;;;4.50;3.50;;;18.90;38.90;;;;;;5095517;28;20246;-71
2021/07/31 01:27:39;;;;;;;5.20;4.20;;;18.90;38.90;;;;;;5094496;28;20177;-71
2021/07/31 01:30:05;;;;;;;4.47;3.60;;;18.90;38.90;;;;;;5093627;28;20201;-75
2021/07/31 01:32:30;;;;;;;5.07;3.90;;;18.80;38.80;;;;;;5094763;28;20408;-71
2021/07/31 01:34:56;;;;;;;4.60;3.83;;;18.80;38.80;;;;;;5094418;28;20427;-70
2021/07/31 01:37:22;;;;;;;6.03;4.57;;;18.70;38.70;;;;;;5094445;28;20169;-72
2021/07/31 01:39:47;;;;;;;4.37;3.93;;;18.70;38.70;;;;;;5094038;28;20194;-71
2021/07/31 01:42:14;;;;;;;4.67;3.20;;;18.70;39.50;;;;;;5094845;28;20183;-71
2021/07/31 01:44:39;;;;;;;7.40;3.83;;;18.60;39.80;;;;;;5094788;28;20539;-72
2021/07/31 01:47:05;;;;;;;4.67;4.23;;;18.60;39.80;;;;;;5094778;28;20406;-72
2021/07/31 01:49:31;;;;;;;5.33;3.63;;;18.50;39.90;;;;;;5094153;28;20208;-73
2021/07/31 01:51:57;;;;;;;5.30;3.80;;;;;;;;;;5096228;28;20798;-71
2021/07/31 01:54:23;;;;;;;8.40;3.83;;;18.60;40.00;;;;;;5095171;28;20182;-71
2021/07/31 01:56:48;;;;;;;8.00;3.87;;;18.70;43.40;;;;;;5094621;28;20412;-71
2021/07/31 01:59:14;;;;;;;5.47;4.70;;;18.70;41.60;;;;;;5094087;28;20274;-71
2021/07/31 02:01:40;;;;;;;5.77;4.10;;;18.70;42.50;;;;;;5093247;28;20268;-71
2021/07/31 02:04:05;;;;;;;3.77;3.47;;;18.70;40.40;;;;;;5094293;28;20439;-71
2021/07/31 02:06:31;;;;;;;5.73;5.10;;;18.70;40.40;;;;;;5094967;28;20178;-71
2021/07/31 02:08:57;;;;;;;7.87;4.10;;;18.70;44.70;;;;;;5094337;28;20169;-71
2021/07/31 02:11:22;;;;;;;6.03;5.50;;;18.60;41.10;;;;;;5094213;28;20201;-70
2021/07/31 02:13:48;;;;;;;5.77;5.27;;;18.70;42.00;;;;;;5093749;28;20189;-70
2021/07/31 02:16:22;;;;;;;6.33;5.73;;;18.70;43.20;;;;;;5093135;28;20212;-71
2021/07/31 02:18:48;;;;;;;6.53;5.77;;;;;;;;;;5092585;28;20172;-71
2021/07/31 02:21:14;;;;;;;5.40;4.90;;;;;;;;;;5093256;28;20430;-71
2021/07/31 02:23:40;;;;;;;8.57;4.50;;;;;;;;;;5094349;28;20418;-71
2021/07/31 02:26:06;;;;;;;4.90;3.80;;;;;;;;;;5093625;28;20424;-70
2021/07/31 02:28:32;;;;;;;4.20;3.80;;;18.90;37.00;;;;;;5092118;28;20419;-70
2021/07/31 02:30:57;;;;;;;5.10;4.17;;;18.90;36.60;;;;;;5106940;22;20582;-70
2021/07/31 02:33:23;;;;;;;5.00;4.10;;;18.80;35.90;;;;;;5096088;28;20197;-70
2021/07/31 02:35:48;;;;;;;7.13;4.40;;;18.80;36.80;;;;;;5095262;28;20656;-70
2021/07/31 02:38:14;;;;;;;8.13;3.10;;;18.90;36.40;;;;;;5077432;28;20200;-70
2021/07/31 02:40:40;;;;;;;3.13;2.83;;;18.90;36.10;;;;;;5073410;28;20203;-70
2021/07/31 02:43:05;;;;;;;3.47;3.17;;;18.80;33.50;;;;;;5056257;28;20179;-70
2021/07/31 02:45:31;;;;;;;5.50;3.50;;;18.70;33.40;;;;;;5056406;28;20187;-70
2021/07/31 02:47:56;;;;;;;6.23;4.40;;;18.70;34.10;;;;;;5055450;28;20658;-70
2021/07/31 02:50:22;;;;;;;9.80;3.83;;;18.80;34.70;;;;;;5063389;28;20599;-70
2021/07/31 02:52:48;;;;;;;4.13;3.60;;;18.80;36.30;;;;;;5074975;28;20717;-70
2021/07/31 02:55:13;;;;;;;5.27;4.77;;;18.80;37.00;;;;;;5075545;28;20495;-70
2021/07/31 02:57:39;;;;;;;5.60;4.20;;;18.80;37.60;;;;;;5075805;28;20228;-70
2021/07/31 03:00:06;;;;;;;5.70;4.83;;;18.80;38.60;;;;;;5068980;28;20230;-70
2021/07/31 03:02:31;;;;;;;5.83;4.63;;;18.80;38.10;;;;;;5055203;28;20178;-70
2021/07/31 03:04:57;;;;;;;6.90;4.40;;;18.80;37.70;;;;;;5037889;28;20433;-70
2021/07/31 03:07:23;;;;;;;5.30;4.80;;;18.80;38.30;;;;;;5055848;28;20186;-71
2021/07/31 03:09:49;;;;;;;4.60;3.53;;;18.80;38.80;;;;;;5059264;28;20206;-70
2021/07/31 03:12:15;;;;;;;3.40;3.10;;;18.70;38.70;;;;;;5075441;28;20174;-70
2021/07/31 03:14:41;;;;;;;3.97;3.60;;;18.70;38.20;;;;;;5074370;28;20201;-70
2021/07/31 03:17:06;;;;;;;4.83;3.87;;;18.70;37.80;;;;;;5075091;28;20491;-70
2021/07/31 03:19:32;;;;;;;4.63;4.00;;;18.70;37.10;;;;;;5072415;28;20468;-70
2021/07/31 03:21:57;;;;;;;4.80;3.27;;;18.70;38.00;;;;;;5055572;28;20178;-70
2021/07/31 03:24:23;;;;;;;8.57;4.90;;;18.60;37.50;;;;;;5055417;28;20190;-70
2021/07/31 03:26:48;;;;;;;6.73;4.83;;;18.60;38.80;;;;;;5054852;28;20586;-70
2021/07/31 03:29:14;;;;;;;3.97;3.57;;;18.50;37.90;;;;;;5055096;28;20178;-70
2021/07/31 03:31:40;;;;;;;7.23;4.20;;;18.40;38.40;;;;;;5055615;28;20666;-70
2021/07/31 03:34:05;;;;;;;6.50;3.80;;;18.30;40.10;;;;;;5075221;28;20218;-70
2021/07/31 03:36:31;;;;;;;7.80;4.60;;;18.20;40.70;;;;;;5074934;28;20174;-70
2021/07/31 03:38:56;;;;;;;3.73;3.40;;;18.10;41.80;;;;;;5075630;28;20226;-70
2021/07/31 03:41:22;;;;;;;5.50;3.43;;;18.00;42.40;;;;;;5058889;28;20256;-70
2021/07/31 03:43:47;;;;;;;5.63;3.20;;;17.90;43.20;;;;;;5055352;28;20561;-69
2021/07/31 03:46:13;;;;;;;7.70;4.57;;;17.80;43.10;;;;;;5054828;28;20193;-70
2021/07/31 03:48:38;;;;;;;4.47;3.50;;;17.70;43.00;;;;;;5055075;28;20206;-70
2021/07/31 03:51:04;;;;;;;5.50;3.47;;;17.50;43.60;;;;;;5068276;28;20213;-70
2021/07/31 03:53:29;;;;;;;4.27;3.83;;;17.40;44.40;;;;;;5075089;28;20182;-69
2021/07/31 03:55:55;;;;;;;5.20;4.10;;;17.30;45.00;;;;;;5075173;28;20178;-70
2021/07/31 03:58:20;;;;;;;4.60;3.50;;;17.20;45.40;;;;;;5074973;28;20647;-70
2021/07/31 04:00:46;;;;;;;4.90;4.33;;;17.10;46.00;;;;;;5063494;28;20206;-70
2021/07/31 04:03:12;;;;;;;5.37;3.53;;;17.00;46.80;;;;;;5055912;28;20234;-69
2021/07/31 04:05:39;;;;;;;5.13;3.67;;;17.00;47.50;;;;;;5037147;28;20182;-70
2021/07/31 04:08:05;;;;;;;4.90;3.73;;;16.90;47.50;;;;;;5054691;28;20544;-70
2021/07/31 04:10:30;;;;;;;5.70;4.60;;;16.90;47.50;;;;;;5063020;28;20983;-70
2021/07/31 04:12:57;;;;;;;4.47;3.57;;;16.90;47.50;;;;;;5074554;28;20404;-70
2021/07/31 04:15:22;;;;;;;5.30;4.37;;;16.90;48.30;;;;;;5075955;28;20210;-70
2021/07/31 04:17:48;;;;;;;6.33;4.57;;;17.00;47.90;;;;;;5073739;28;20415;-70
2021/07/31 04:20:14;;;;;;;4.50;3.67;;;17.00;48.10;;;;;;5076015;28;20214;-70
2021/07/31 04:22:39;;;;;;;4.27;3.87;;;17.00;48.60;;;;;;5077888;28;20265;-70
2021/07/31 04:25:05;;;;;;;7.50;4.73;;;16.90;49.30;;;;;;5074598;28;20182;-70
2021/07/31 04:27:33;;;;;;;8.83;5.03;;;16.90;50.10;;;;;;5077291;28;20173;-70
2021/07/31 04:29:59;;;;;;;6.03;3.27;;;16.80;50.30;;;;;;5072972;28;20563;-69
2021/07/31 04:32:25;;;;;;;4.63;3.37;;;16.80;50.50;;;;;;5052192;28;20438;-70
2021/07/31 04:34:50;;;;;;;5.30;4.13;;;16.80;50.80;;;;;;5057441;28;20433;-70
2021/07/31 04:37:16;;;;;;;5.80;5.30;;;16.70;50.70;;;;;;5072694;28;20182;-69
2021/07/31 04:39:42;;;;;;;6.50;4.70;;;16.70;51.20;;;;;;5077111;28;20221;-69
2021/07/31 04:42:07;;;;;;;10.93;5.30;;;16.70;51.40;;;;;;5056877;28;20166;-70
2021/07/31 04:44:33;;;;;;;5.10;3.50;;;16.80;51.10;;;;;;5057177;28;20183;-69
2021/07/31 04:46:59;;;;;;;4.20;3.67;;;16.90;51.30;;;;;;5057277;28;20188;-70
2021/07/31 04:49:24;;;;;;;4.67;4.17;;;16.90;50.00;;;;;;5056705;28;20343;-69
2021/07/31 04:51:50;;;;;;;7.93;4.53;;;16.90;50.10;;;;;;5056777;28;20573;-69
2021/07/31 04:54:16;;;;;;;6.67;3.73;;;16.90;49.80;;;;;;5056565;28;20174;-69
2021/07/31 04:56:42;;;;;;;5.60;4.00;;;17.00;49.50;;;;;;5057148;28;20206;-69
2021/07/31 04:59:08;;;;;;;4.27;3.87;;;17.00;48.20;;;;;;5056972;28;20177;-69
2021/07/31 05:01:34;;;;;;;6.70;3.50;;;17.00;47.90;;;;;;5072676;28;20482;-69
2021/07/31 05:03:59;;;;;;;4.67;3.90;;;16.90;48.00;;;;;;5076318;28;20408;-69
2021/07/31 05:06:25;;;;;;;5.63;3.13;;;17.00;48.40;;;;;;5076303;28;20227;-69
2021/07/31 05:08:51;;;;;;;4.87;4.40;;;17.00;48.60;;;;;;5076202;28;20253;-69
2021/07/31 05:11:21;;;;;;;5.60;4.33;;;17.10;47.60;;;;;;5075347;28;20220;-69
2021/07/31 05:13:50;;;;;;;5.03;3.20;;;17.30;46.70;;;;;;5075926;28;20170;-69
2021/07/31 05:16:16;;;;;;;8.93;3.97;;;17.40;46.30;;;;;;5058968;28;20960;-69
2021/07/31 05:18:42;;;;;;;5.40;3.83;;;17.50;45.40;;;;;;5077034;28;20428;-69
2021/07/31 05:21:09;;;;;;;3.30;3.00;;;17.80;44.80;;;;;;5075627;28;20456;-69
2021/07/31 05:23:36;;;;;;;4.20;3.70;;;18.30;43.60;;;;;;5077161;28;20442;-69
2021/07/31 05:26:01;;;;;;;4.30;3.87;;;19.10;40.50;;;;;;5077009;28;20475;-70
2021/07/31 05:28:27;;;;;;;6.37;3.37;;;;;;;;;;5077214;28;20412;-71
2021/07/31 05:30:53;;;;;;;4.13;3.10;;;20.90;30.80;;;;;;5066686;28;20226;-70
2021/07/31 05:33:18;;;;;;;3.60;3.17;;;21.10;30.20;;;;;;5057438;28;20440;-70
2021/07/31 05:35:44;;;;;;;4.00;3.20;;;21.60;30.00;;;;;;5076242;28;20555;-71
2021/07/31 05:38:09;;;;;;;3.77;2.90;;;22.50;28.20;;;;;;5094286;28;20185;-71
2021/07/31 05:40:35;;;;;;;8.50;3.80;;;23.50;25.10;;;;;;5093118;28;20216;-71
2021/07/31 05:43:01;;;;;;;14.50;4.03;;;24.70;24.10;;;;;;5097271;28;20268;-71
2021/07/31 05:45:27;;;;;;;5.13;4.60;;;25.80;21.00;;;;;;5097214;28;20177;-71
2021/07/31 05:47:56;;;;;;;4.37;4.00;;;26.10;19.20;;;;;;5096898;28;20189;-71
2021/07/31 05:50:22;;;;;;;4.80;4.40;;;25.40;20.20;;;;;;5086237;28;20927;-71
2021/07/31 05:52:48;;;;;;;4.90;3.70;;;24.40;21.30;;;;;;5066117;28;20453;-70
2021/07/31 05:55:13;;;;;;;6.57;3.80;;;23.60;23.00;;;;;;5096263;28;20237;-70
2021/07/31 05:57:39;;;;;;;4.60;4.20;;;22.90;23.90;;;;;;5078130;28;20188;-71
2021/07/31 06:00:05;;;;;;;3.67;3.30;;;22.50;25.40;;;;;;5092301;28;20413;-70
2021/07/31 06:02:31;;;;;;;4.03;3.63;;;22.60;26.10;;;;;;5075755;28;20670;-70
2021/07/31 06:04:56;;;;;;;4.60;4.30;;;23.60;24.00;;;;;;5076295;28;20428;-72
2021/07/31 06:07:22;;;;;;;5.50;4.70;;;;;;;;;;5076438;28;20181;-71
2021/07/31 06:09:51;;;;;;;5.77;5.27;;;26.20;20.10;;;;;;5075804;28;20678;-71
2021/07/31 06:12:23;;;;;;;7.30;4.93;;;27.40;16.70;;;;;;5067115;28;20789;-71
2021/07/31 06:14:49;;;;;;;6.53;5.73;;;28.30;12.70;;;;;;5078120;28;20401;-71
2021/07/31 06:17:15;;;;;;;5.70;5.40;;;29.10;11.60;;;;;;5074481;28;20511;-71
2021/07/31 06:19:41;;;;;;;6.73;6.33;;;29.80;10.50;;;;;;5075180;28;20289;-71
2021/07/31 06:22:07;;;;;;;6.87;6.57;;;30.30;9.60;;;;;;5057075;28;20261;-71
2021/07/31 06:24:33;;;;;;;7.20;6.90;;;31.00;7.30;;;;;;5059672;28;20186;-72
2021/07/31 06:26:58;;;;;;;7.20;6.90;;;31.30;6.50;;;;;;5038289;28;20429;-71
2021/07/31 06:29:24;;;;;;;8.90;8.40;;;31.60;6.50;;;;;;5066091;28;20189;-71
2021/07/31 06:31:51;;;;;;;7.80;7.40;;;32.00;5.30;;;;;;5059117;28;20202;-71
2021/07/31 06:34:17;;;;;;;9.40;8.90;;;32.10;4.90;;;;;;5076392;28;20208;-72
2021/07/31 06:36:43;;;;;;;9.70;9.20;;;31.70;4.00;;;;;;5075270;28;20412;-77
2021/07/31 06:39:09;;;;;;;9.27;8.93;;;31.80;5.20;;;;;;5073445;28;20265;-71
2021/07/31 06:41:35;;;;;;;9.93;9.53;;;32.10;4.90;;;;;;5062385;28;20191;-71
2021/07/31 06:44:00;;;;;;;10.13;9.73;;;32.30;4.00;;;;;;5054202;28;20459;-72
2021/07/31 06:46:26;;;;;;;11.07;10.60;;;32.50;4.60;;;;;;5055695;28;20202;-71
2021/07/31 06:48:56;;;;;;;11.90;11.20;;;32.70;3.20;;;;;;5054856;28;20190;-72
2021/07/31 06:51:22;;;;;;;12.23;11.73;;;32.90;3.30;;;;;;5066755;28;20257;-72
2021/07/31 06:53:49;;;;;;;13.60;13.00;;;33.20;3.10;;;;;;5074139;28;20484;-71
2021/07/31 06:56:15;;;;;;;13.27;12.77;;;33.20;2.20;;;;;;5075262;28;20423;-71
2021/07/31 06:58:41;;;;;;;14.50;13.90;;;33.20;3.00;;;;;;5074834;28;20419;-71
2021/07/31 07:01:10;;;;;;;14.93;14.37;;;;;;;;;;5064964;28;20457;-72
2021/07/31 07:03:36;;;;;;;15.43;14.83;;;33.30;1.20;;;;;;5055295;28;20185;-72
2021/07/31 07:06:06;;;;;;;16.30;15.60;;;33.30;2.10;;;;;;5055339;28;20417;-71
2021/07/31 07:08:32;;;;;;;17.10;15.87;;;;;;;;;;5054036;28;20409;-72
2021/07/31 07:10:59;;;;;;;17.13;16.43;;;;;;;;;;5060941;28;20514;-76
2021/07/31 07:13:25;;;;;;;16.87;16.17;;;32.70;1.70;;;;;;5071638;28;20477;-71
2021/07/31 07:15:51;;;;;;;16.47;15.87;;;;;;;;;;5073217;28;20412;-71
2021/07/31 07:18:17;;;;;;;17.33;16.63;;;;;;;;;;5073398;28;20638;-71
2021/07/31 07:20:43;;;;;;;17.80;17.00;;;;;;;;;;5049691;28;20813;-71
2021/07/31 07:23:11;;;;;;;18.87;17.90;;;;;;;;;;5054485;28;20770;-71
2021/07/31 07:25:37;;;;;;;18.53;17.53;;;;;;;;;;5054334;28;20413;-71
2021/07/31 07:28:03;;;;;;;17.90;17.20;;;31.70;2.20;;;;;;5037783;28;20440;-71
2021/07/31 07:30:29;;;;;;;18.53;17.80;;;;;;;;;;5058655;28;20468;-71
2021/07/31 07:32:54;;;;;;;19.40;18.47;;;31.60;2.60;;;;;;5063270;28;20191;-71
2021/07/31 07:35:21;;;;;;;18.50;17.77;;;;;;;;;;5074120;28;20189;-71
2021/07/31 07:37:47;;;;;;;19.10;18.30;;;32.40;1.30;;;;;;5074676;28;20239;-71
2021/07/31 07:40:13;;;;;;;18.67;17.97;;;32.20;1.00;;;;;;5076000;28;20435;-71
2021/07/31 07:42:39;;;;;;;19.00;18.20;;;32.00;2.40;;;;;;5057255;28;20428;-71
2021/07/31 07:45:09;;;;;;;19.47;18.40;;;32.20;1.90;;;;;;5068998;28;20432;-71
2021/07/31 07:47:35;;;;;;;19.30;18.40;;;32.10;2.10;;;;;;5055159;28;20179;-71
2021/07/31 07:50:04;;;;;;;19.80;19.00;;;31.80;2.50;;;;;;5054837;28;20492;-70
2021/07/31 07:52:30;;;;;;;19.40;18.60;;;31.00;2.60;;;;;;5050774;28;20420;-72
2021/07/31 07:54:55;;;;;;;19.33;18.57;;;29.80;4.20;;;;;;5054527;28;20429;-71
2021/07/31 07:57:21;;;;;;;19.30;18.30;;;28.20;5.80;;;;;;5054183;28;20173;-70
2021/07/31 07:59:46;;;;;;;19.70;18.60;;;28.20;7.30;;;;;;5072613;28;20194;-70
2021/07/31 08:02:12;;;;;;;19.03;18.23;;;28.00;7.60;;;;;;5060748;28;20583;-71
2021/07/31 08:04:38;;;;;;;20.03;19.23;;;28.20;7.00;;;;;;5072373;28;20184;-71
2021/07/31 08:07:04;;;;;;;19.60;18.80;;;28.80;5.90;;;;;;5058578;28;20178;-71
2021/07/31 08:09:30;;;;;;;19.67;18.77;;;29.30;5.20;;;;;;5053513;28;20495;-71
2021/07/31 08:11:55;;;;;;;19.80;18.80;;;29.80;6.30;;;;;;5054491;28;20260;-71
2021/07/31 08:14:21;;;;;;;19.77;18.90;;;30.60;4.70;;;;;;5062351;28;20374;-71
2021/07/31 08:16:46;;;;;;;20.10;19.10;;;31.00;2.00;;;;;;5064672;28;20285;-72
2021/07/31 08:19:12;;;;;;;20.00;18.97;;;29.70;4.10;;;;;;5064970;28;20195;-71
2021/07/31 08:21:38;;;;;;;20.20;19.20;;;29.30;5.20;;;;;;5054127;28;20182;-71
2021/07/31 08:24:05;;;;;;;19.20;18.40;;;29.20;4.70;;;;;;5053691;28;20190;-71
2021/07/31 08:26:30;;;;;;;19.33;18.53;;;29.40;4.90;;;;;;5069636;28;21011;-71
2021/07/31 08:28:56;;;;;;;19.70;18.80;;;29.70;4.40;;;;;;5071729;28;20475;-71
2021/07/31 08:31:21;;;;;;;19.57;18.77;;;30.20;4.40;;;;;;5072178;28;20692;-71
2021/07/31 08:33:47;;;;;;;20.20;19.40;;;30.30;4.50;;;;;;5073801;28;20189;-71
2021/07/31 08:36:12;;;;;;;19.53;18.80;;;30.30;4.40;;;;;;5072713;28;20193;-72
2021/07/31 08:38:38;;;;;;;20.07;19.27;;;30.30;4.50;;;;;;5072910;28;20189;-72
2021/07/31 08:41:05;;;;;;;20.10;19.23;;;30.60;3.50;;;;;;5073272;28;20686;-72
2021/07/31 08:43:31;;;;;;;20.07;19.27;;;30.60;3.20;;;;;;5038412;28;20264;-71
2021/07/31 08:45:57;;;;;;;21.30;19.93;;;30.80;3.30;;;;;;5034824;28;20441;-71
2021/07/31 08:48:30;;;;;;;21.27;20.37;;;31.10;2.10;;;;;;5053011;28;20474;-71
2021/07/31 08:50:58;;;;;;;21.30;20.30;;;31.30;2.90;;;;;;5072893;28;20541;-71
2021/07/31 08:53:25;;;;;;;20.13;19.33;;;30.80;2.20;;;;;;5072955;28;20420;-72
2021/07/31 08:55:51;;;;;;;20.33;19.27;;;29.90;2.70;;;;;;5055154;28;20503;-71
2021/07/31 08:58:16;;;;;;;20.00;19.20;;;29.20;3.90;;;;;;5073310;28;20499;-71
2021/07/31 09:00:42;;;;;;;19.97;19.17;;;28.40;4.80;;;;;;5071812;28;20464;-71
2021/07/31 09:03:08;;;;;;;19.67;18.87;;;28.00;4.90;;;;;;5072587;28;20564;-71
2021/07/31 09:05:35;;;;;;;20.00;18.90;;;27.20;7.50;;;;;;5065862;28;20647;-70
2021/07/31 09:08:05;;;;;;;19.43;18.63;;;26.80;7.30;;;;;;5072787;28;20281;-71
2021/07/31 09:10:34;;;;;;;18.73;18.03;;;26.70;7.50;;;;;;5057316;28;20457;-71
2021/07/31 09:13:02;;;;;;;19.10;18.30;;;26.50;7.40;;;;;;5051380;28;20417;-71
2021/07/31 09:15:32;;;;;;;19.50;18.47;;;26.20;7.70;;;;;;5052846;28;20424;-70
2021/07/31 09:18:26;;;;;;;19.47;18.60;;;26.00;6.90;;;;;;5034928;28;20879;-70
2021/07/31 09:21:14;;;;;;;18.90;18.10;;;25.90;7.80;;;;;;5069208;28;20448;-70
2021/07/31 09:23:44;;;;;;;18.90;18.00;;;26.00;7.70;;;;;;5072829;28;20420;-71
2021/07/31 09:26:12;;;;;;;17.97;17.30;;;26.00;9.20;;;;;;5072569;28;20503;-71
2021/07/31 09:28:40;;;;;;;17.80;17.10;;;26.00;9.10;;;;;;5071892;28;20413;-71
2021/07/31 09:31:15;;;;;;;19.50;18.60;;;26.00;8.10;;;;;;5034610;28;20523;-71
2021/07/31 09:33:41;;;;;;;18.20;17.40;;;;;;;;;;5052901;28;20396;-71
2021/07/31 09:36:07;;;;;;;18.73;17.93;;;25.60;10.80;;;;;;5052139;28;20437;-71
2021/07/31 09:38:41;;;;;;;18.37;17.57;;;25.60;9.20;;;;;;5064794;28;20490;-71
2021/07/31 09:41:24;;;;;;;19.10;17.83;;;25.40;9.50;;;;;;5071024;28;20204;-71
2021/07/31 09:44:16;;;;;;;18.30;17.50;;;25.30;9.40;;;;;;5040112;28;20429;-71
2021/07/31 09:46:54;;;;;;;17.50;16.70;;;25.10;9.80;;;;;;5049459;28;20433;-70
2021/07/31 09:49:24;;;;;;;17.93;17.07;;;25.10;9.80;;;;;;5057222;28;20454;-70
2021/07/31 09:51:58;;;;;;;18.47;17.57;;;25.10;8.80;;;;;;5086989;28;20459;-69
2021/07/31 09:54:23;;;;;;;17.90;17.03;;;25.00;8.90;;;;;;5092725;28;20430;-71
2021/07/31 09:56:51;;;;;;;18.73;17.50;;;25.20;11.10;;;;;;5092683;28;20411;-70
2021/07/31 09:59:19;;;;;;;17.70;16.97;;;25.30;9.20;;;;;;5065642;28;20265;-70
2021/07/31 10:01:57;;;;;;;18.20;17.50;;;25.10;9.80;;;;;;5052820;28;20415;-70
2021/07/31 10:04:23;;;;;;;18.23;17.53;;;25.00;10.10;;;;;;5069153;28;20423;-70
2021/07/31 10:06:50;;;;;;;19.60;18.30;;;24.90;10.90;;;;;;5092657;28;20465;-70
2021/07/31 10:09:16;;;;;;;17.90;17.20;;;24.90;8.30;;;;;;5084725;28;20433;-70
2021/07/31 10:11:44;;;;;;;18.40;17.70;;;24.60;10.70;;;;;;5052685;28;21028;-70
2021/07/31 10:14:10;;;;;;;18.10;17.40;;;24.50;8.50;;;;;;5052067;28;20171;-70
2021/07/31 10:16:45;;;;;;;18.20;17.30;;;24.50;10.20;;;;;;5052031;28;20908;-70
2021/07/31 10:19:11;;;;;;;18.80;18.00;;;24.60;10.70;;;;;;5051861;28;20825;-70
2021/07/31 10:21:47;;;;;;;18.07;17.30;;;24.60;9.90;;;;;;5051997;28;20416;-70
2021/07/31 10:24:13;;;;;;;18.00;17.30;;;24.70;10.80;;;;;;5051655;28;20427;-75
2021/07/31 10:26:39;;;;;;;18.60;17.90;;;24.80;9.00;;;;;;5077737;28;20436;-75
2021/07/31 10:29:32;;;;;;;18.57;17.87;;;25.00;8.70;;;;;;5073583;28;20431;-75
2021/07/31 10:32:20;;;;;;;18.63;17.53;;;25.30;7.60;;;;;;5061383;28;20262;-71
2021/07/31 10:34:53;;;;;;;19.30;18.50;;;25.30;8.70;;;;;;5050501;28;20922;-71
2021/07/31 10:37:27;;;;;;;19.80;19.00;;;25.40;7.00;;;;;;5052011;28;20440;-71
2021/07/31 10:39:57;;;;;;;21.13;20.07;;;25.40;7.80;;;;;;5053759;28;20949;-71
2021/07/31 10:42:23;;;;;;;19.60;18.80;;;25.50;8.90;;;;;;5051678;28;20421;-70
2021/07/31 10:45:17;;;;;;;22.40;19.80;;;25.70;6.60;;;;;;5059182;28;20772;-70
2021/07/31 10:47:47;;;;;;;19.00;18.30;;;25.70;6.70;;;;;;5090215;28;20403;-70
2021/07/31 10:50:22;;;;;;;19.47;18.60;;;25.70;7.80;;;;;;5067618;28;20463;-71
2021/07/31 10:52:59;;;;;;;19.10;18.37;;;25.70;7.50;;;;;;5065482;28;20945;-70
2021/07/31 10:55:25;;;;;;;20.03;19.23;;;25.60;6.70;;;;;;5062521;28;21005;-73
2021/07/31 10:57:54;;;;;;;18.93;18.23;;;25.40;6.00;;;;;;5073471;28;20425;-71
2021/07/31 11:00:27;;;;;;;19.53;18.73;;;25.30;6.50;;;;;;5082813;28;20543;-71
2021/07/31 11:02:54;;;;;;;18.43;17.73;;;25.10;6.40;;;;;;5052802;28;20424;-71
2021/07/31 11:05:20;;;;;;;19.03;18.03;;;25.20;8.00;;;;;;5053370;28;20419;-70
2021/07/31 11:08:04;;;;;;;18.83;18.13;;;25.20;8.00;;;;;;5071131;28;20424;-71
2021/07/31 11:10:44;;;;;;;19.50;18.60;;;25.40;7.00;;;;;;5062755;28;20590;-71
2021/07/31 11:13:11;;;;;;;19.03;18.33;;;25.60;5.80;;;;;;5051251;28;20453;-71
2021/07/31 11:16:00;;;;;;;18.73;17.93;;;25.70;5.50;;;;;;5051080;28;20413;-72
2021/07/31 11:18:37;;;;;;;18.60;17.80;;;25.50;6.60;;;;;;5051128;28;20409;-71
2021/07/31 11:21:09;;;;;;;18.40;17.70;;;25.40;7.40;;;;;;5046567;28;20525;-71
2021/07/31 11:23:43;;;;;;;19.10;18.20;;;25.50;7.40;;;;;;5091371;28;20501;-71
2021/07/31 11:26:09;;;;;;;19.20;18.37;;;25.60;6.70;;;;;;5073297;28;20415;-71
2021/07/31 11:28:36;;;;;;;18.87;18.07;;;25.60;6.20;;;;;;5089058;28;20908;-71
2021/07/31 11:31:15;;;;;;;19.27;18.57;;;25.70;6.40;;;;;;5070698;28;20500;-71
2021/07/31 11:33:41;;;;;;;18.73;18.03;;;25.70;5.50;;;;;;5071145;28;20447;-71
2021/07/31 11:36:13;;;;;;;19.00;18.20;;;25.50;5.70;;;;;;5070369;28;20423;-71
2021/07/31 11:38:40;;;;;;;20.20;19.20;;;25.60;6.70;;;;;;5069342;28;20240;-71
2021/07/31 11:41:11;;;;;;;20.10;18.90;;;25.70;5.60;;;;;;5050662;28;20432;-71
2021/07/31 11:43:43;;;;;;;19.37;18.57;;;25.70;5.20;;;;;;5054070;28;20829;-71
2021/07/31 11:46:10;;;;;;;20.13;19.37;;;25.80;6.30;;;;;;5073048;28;20473;-71
2021/07/31 11:48:35;;;;;;;20.27;19.47;;;25.90;5.60;;;;;;5089060;28;20895;-71
2021/07/31 11:51:02;;;;;;;19.93;19.13;;;26.00;4.40;;;;;;5056798;28;20483;-72
2021/07/31 11:53:28;;;;;;;20.17;19.37;;;25.90;4.00;;;;;;5075654;28;20166;-71
2021/07/31 11:56:12;;;;;;;20.30;19.50;;;25.80;5.00;;;;;;5074403;28;20411;-71
2021/07/31 11:58:40;;;;;;;19.80;19.00;;;25.70;4.10;;;;;;5072336;28;20331;-72
2021/07/31 12:01:12;;;;;;;19.57;18.67;;;25.70;4.60;;;;;;5064960;28;20824;-72
2021/07/31 12:03:45;;;;;;;20.17;19.37;;;25.80;5.60;;;;;;5076706;28;20495;-71
2021/07/31 12:06:34;;;;;;;19.80;18.90;;;25.70;4.30;;;;;;5056898;28;20420;-71
2021/07/31 12:09:04;;;;;;;19.40;18.60;;;25.50;4.80;;;;;;5066288;28;20425;-71
2021/07/31 12:11:37;;;;;;;19.23;18.53;;;25.50;5.40;;;;;;5050474;28;20467;-71
2021/07/31 12:14:28;;;;;;;19.27;18.47;;;25.50;5.20;;;;;;5050583;28;20512;-71
2021/07/31 12:17:12;;;;;;;19.70;18.70;;;25.40;5.30;;;;;;5050509;28;20405;-71
2021/07/31 12:19:59;;;;;;;19.50;18.70;;;25.30;5.20;;;;;;5039468;28;21158;-69
2021/07/31 12:22:34;;;;;;;19.47;18.57;;;25.00;5.50;;;;;;5060337;28;20424;-69
2021/07/31 12:25:14;;;;;;;19.87;18.83;;;24.70;6.20;;;;;;5070614;28;21058;-70
2021/07/31 12:27:55;;;;;;;19.37;18.57;;;24.70;6.50;;;;;;5050408;28;20411;-70
2021/07/31 12:30:28;;;;;;;19.43;18.63;;;24.80;6.90;;;;;;5049930;28;20900;-70
2021/07/31 12:33:01;;;;;;;20.07;19.07;;;25.00;7.20;;;;;;5050432;28;20462;-69
2021/07/31 12:35:44;;;;;;;18.93;18.23;;;25.20;6.50;;;;;;5050307;28;20408;-70
2021/07/31 12:38:13;;;;;;;20.40;19.40;;;25.50;6.40;;;;;;5038308;28;20420;-70
2021/07/31 12:40:39;;;;;;;20.00;19.20;;;25.80;5.60;;;;;;5070510;28;20436;-70
2021/07/31 12:43:10;;;;;;;21.23;20.03;;;26.00;4.60;;;;;;5076365;28;20419;-70
2021/07/31 12:45:36;;;;;;;19.90;19.03;;;26.30;5.20;;;;;;5054562;28;20460;-69
2021/07/31 12:48:01;;;;;;;19.60;18.80;;;26.60;4.50;;;;;;5067205;28;20450;-69
2021/07/31 12:50:27;;;;;;;19.80;18.90;;;26.80;4.50;;;;;;5068248;28;20205;-69